createdAt,value
2023-05-21T00:05:04.096Z,21.70
2023-05-21T00:13:12.095Z,21.50
2023-05-21T00:21:17.692Z,21.30
2023-05-21T00:29:26.946Z,21.20
2023-05-21T00:37:34.605Z,21.20
2023-05-21T00:45:44.763Z,21.20
2023-05-21T00:53:52.837Z,21.20
2023-05-21T01:02:04.419Z,21.20
2023-05-21T01:10:12.771Z,21.10
2023-05-21T01:18:24.847Z,20.90
2023-05-21T01:26:33.595Z,21.20
2023-05-21T01:34:45.082Z,20.80
2023-05-21T01:42:53.128Z,20.60
2023-05-21T01:51:00.765Z,20.70
2023-05-21T01:59:09.346Z,20.80
2023-05-21T02:07:15.338Z,20.80
2023-05-21T02:15:25.141Z,20.80
2023-05-21T02:23:30.641Z,20.40
2023-05-21T02:31:38.825Z,20.60
2023-05-21T02:39:44.245Z,20.90
2023-05-21T02:47:52.390Z,20.80
2023-05-21T02:55:58.627Z,20.90
2023-05-21T03:04:07.060Z,20.60
2023-05-21T03:12:13.077Z,20.20
2023-05-21T03:20:21.082Z,20.30
2023-05-21T03:28:26.880Z,20.40
2023-05-21T03:36:35.055Z,20.60
2023-05-21T03:44:41.829Z,20.70
2023-05-21T03:53:24.797Z,20.80
2023-05-21T04:01:31.171Z,21.00
2023-05-21T04:09:39.381Z,21.10
2023-05-21T04:17:45.598Z,21.30
2023-05-21T04:25:54.214Z,21.00
2023-05-21T04:34:00.654Z,21.10
2023-05-21T04:42:11.206Z,21.00
2023-05-21T04:50:17.778Z,21.60
2023-05-21T04:58:26.561Z,22.20
2023-05-21T05:06:32.276Z,22.80
2023-05-21T05:14:40.440Z,23.40
2023-05-21T05:22:46.895Z,23.80
2023-05-21T05:30:55.172Z,24.00
2023-05-21T05:39:03.352Z,24.30
2023-05-21T05:47:11.473Z,24.80
2023-05-21T05:55:18.455Z,25.20
2023-05-21T06:03:26.781Z,25.60
2023-05-21T06:11:32.559Z,26.00
2023-05-21T06:19:40.837Z,26.40
2023-05-21T06:27:46.920Z,25.70
2023-05-21T06:36:00.936Z,26.20
2023-05-21T06:44:07.284Z,26.90
2023-05-21T06:52:53.836Z,27.10
2023-05-21T07:00:59.675Z,27.40
2023-05-21T07:09:09.070Z,28.10
2023-05-21T07:17:15.144Z,27.50
2023-05-21T07:25:23.479Z,28.00
2023-05-21T07:33:29.930Z,28.40
2023-05-21T07:41:38.977Z,27.80
2023-05-21T07:49:46.676Z,27.50
2023-05-21T07:57:55.264Z,27.80
2023-05-21T08:06:08.332Z,27.90
2023-05-21T08:14:16.578Z,28.00
2023-05-21T08:22:22.068Z,28.00
2023-05-21T08:30:31.061Z,27.80
2023-05-21T08:38:37.038Z,27.60
2023-05-21T08:47:06.024Z,27.20
2023-05-21T08:55:12.888Z,26.70
2023-05-21T09:03:22.775Z,26.80
2023-05-21T09:11:29.111Z,27.30
2023-05-21T09:19:39.575Z,27.20
2023-05-21T09:27:45.860Z,27.60
2023-05-21T09:35:54.120Z,28.10
2023-05-21T09:44:03.065Z,27.60
2023-05-21T09:52:15.191Z,28.10
2023-05-21T10:00:25.463Z,27.80
2023-05-21T10:08:37.125Z,27.70
2023-05-21T10:16:43.597Z,28.00
2023-05-21T10:24:52.374Z,28.60
2023-05-21T10:32:59.180Z,27.40
2023-05-21T10:41:09.686Z,27.10
2023-05-21T10:49:36.371Z,27.80
2023-05-21T10:58:14.788Z,28.00
2023-05-21T11:06:28.173Z,29.80
2023-05-21T11:14:40.269Z,29.80
2023-05-21T11:22:45.807Z,29.90
2023-05-21T11:31:27.166Z,30.50
2023-05-21T11:39:32.645Z,30.80
2023-05-21T11:47:40.827Z,35.00
2023-05-21T11:55:47.647Z,29.50
2023-05-21T12:03:55.695Z,24.50
2023-05-21T12:12:01.904Z,23.80
2023-05-21T12:20:11.508Z,24.70
2023-05-21T12:28:17.080Z,31.00
2023-05-21T12:36:30.585Z,36.80
2023-05-21T12:44:36.940Z,39.00
2023-05-21T12:52:44.994Z,40.80
2023-05-21T13:00:50.414Z,35.40
2023-05-21T13:08:58.480Z,30.80
2023-05-21T13:17:04.019Z,28.00
2023-05-21T13:25:15.860Z,27.00
2023-05-21T13:33:21.685Z,26.80
2023-05-21T13:41:33.097Z,26.80
2023-05-21T13:49:38.858Z,26.90
2023-05-21T13:57:49.790Z,27.10
2023-05-21T14:05:57.547Z,26.90
2023-05-21T14:14:05.904Z,28.20
2023-05-21T14:22:11.511Z,29.20
2023-05-21T14:30:19.937Z,29.10
2023-05-21T14:38:25.433Z,28.40
2023-05-21T14:46:33.720Z,29.20
2023-05-21T14:54:39.991Z,29.40
2023-05-21T15:02:48.234Z,28.20
2023-05-21T15:10:54.886Z,25.20
2023-05-21T15:19:03.028Z,26.00
2023-05-21T15:27:08.810Z,26.60
2023-05-21T15:35:18.497Z,27.10
2023-05-21T15:43:24.012Z,27.60
2023-05-21T15:51:32.042Z,26.70
2023-05-21T15:59:37.520Z,27.20
2023-05-21T16:07:46.406Z,26.80
2023-05-21T16:15:52.001Z,27.00
2023-05-21T16:24:00.071Z,26.50
2023-05-21T16:32:05.655Z,24.20
2023-05-21T16:40:15.293Z,23.70
2023-05-21T16:48:20.802Z,23.00
2023-05-21T16:56:36.120Z,23.80
2023-05-21T17:04:44.853Z,24.10
2023-05-21T17:12:52.864Z,24.20
2023-05-21T17:20:59.138Z,24.00
2023-05-21T17:29:08.171Z,24.00
2023-05-21T17:37:13.634Z,24.00
2023-05-21T17:45:21.742Z,23.80
2023-05-21T17:53:28.489Z,23.50
2023-05-21T18:01:36.676Z,23.60
2023-05-21T18:09:43.042Z,23.40
2023-05-21T18:17:51.278Z,23.30
2023-05-21T18:25:56.707Z,23.10
2023-05-21T18:34:04.840Z,23.00
2023-05-21T18:42:13.897Z,22.90
2023-05-21T18:50:22.502Z,22.80
2023-05-21T18:58:29.514Z,22.20
2023-05-21T19:06:37.641Z,22.00
2023-05-21T19:14:45.297Z,22.10
2023-05-21T19:22:54.007Z,21.70
2023-05-21T19:31:01.602Z,21.50
2023-05-21T19:39:10.142Z,21.50
2023-05-21T19:47:15.938Z,21.10
2023-05-21T19:55:25.022Z,21.40
2023-05-21T20:03:35.902Z,20.80
2023-05-21T20:11:45.195Z,20.80
2023-05-21T20:19:50.969Z,20.60
2023-05-21T20:28:01.465Z,20.60
2023-05-21T20:36:07.646Z,20.40
2023-05-21T20:44:15.688Z,20.50
2023-05-21T20:52:21.343Z,19.90
2023-05-21T21:00:29.865Z,19.70
2023-05-21T21:08:36.428Z,20.10
2023-05-21T21:16:45.065Z,19.90
2023-05-21T21:24:51.521Z,20.00
2023-05-21T21:33:00.063Z,20.20
2023-05-21T21:41:07.556Z,19.80
2023-05-21T21:49:17.545Z,19.40
2023-05-21T21:57:24.368Z,19.50
2023-05-21T22:05:33.129Z,19.80
2023-05-21T22:13:38.758Z,19.60
2023-05-21T22:21:48.332Z,19.20
2023-05-21T22:29:53.693Z,19.40
2023-05-21T22:38:02.650Z,19.50
2023-05-21T22:46:08.247Z,19.50
2023-05-21T22:54:16.348Z,19.20
2023-05-21T23:02:21.946Z,19.40
2023-05-21T23:10:30.007Z,19.20
2023-05-21T23:18:35.714Z,19.50
2023-05-21T23:26:43.730Z,19.00
2023-05-21T23:34:49.097Z,19.10
2023-05-21T23:42:57.267Z,18.70
2023-05-21T23:51:02.764Z,18.70
2023-05-21T23:59:10.904Z,18.80
